Time;durP1;ratioP1;P1;durP2;ratioP2;P2;SDS_P1;SDS_P2;PMS_P1;PMS_P2;Temp;Humidity;BMP_temperature;BMP_pressure;BME280_temperature;BME280_humidity;BME280_pressure;Samples;Min_cycle;Max_cycle;Signal;HPM_P1;HPM_P2
2023/09/16 00:01:13;;;;;;;22.38;15.27;;;;;;;;;;2096005;28;20043;-75
2023/09/16 00:02:37;;;;;;;23.77;15.23;;;;;;;;;;2088371;28;20032;-75
2023/09/16 00:03:58;;;;;;;22.95;15.60;;;;;;;;;;2090248;28;20033;-75
2023/09/16 00:05:18;;;;;;;20.88;14.57;;;;;;;;;;2090974;28;20055;-75
2023/09/16 00:06:39;;;;;;;22.08;14.57;;;;;;;;;;2088978;28;20029;-75
2023/09/16 00:08:00;;;;;;;21.10;14.23;;;;;;;;;;2084568;28;20029;-74
2023/09/16 00:09:21;;;;;;;22.33;15.15;;;;;;;;;;2093690;28;20388;-75
2023/09/16 00:10:42;;;;;;;18.75;14.57;;;;;;;;;;2084789;28;20037;-75
2023/09/16 00:12:03;;;;;;;27.08;15.68;;;;;;;;;;2076686;28;20045;-74
2023/09/16 00:13:24;;;;;;;22.17;14.35;;;;;;;;;;2079219;28;20100;-75
2023/09/16 00:14:45;;;;;;;20.27;14.20;;;;;;;;;;2080432;28;20025;-74
2023/09/16 00:16:06;;;;;;;20.55;14.80;;;;;;;;;;2084167;28;20805;-75
2023/09/16 00:17:27;;;;;;;24.40;15.53;;;;;;;;;;2079590;28;20030;-74
2023/09/16 00:18:48;;;;;;;21.70;15.63;;;;;;;;;;2077282;28;20419;-75
2023/09/16 00:20:15;;;;;;;22.75;15.02;;;;;;;;;;2085754;28;20029;-74
2023/09/16 00:21:35;;;;;;;21.42;14.20;;;;;;;;;;2096790;28;20025;-75
2023/09/16 00:22:57;;;;;;;20.35;14.68;;;;;;;;;;2088639;28;20029;-75
2023/09/16 00:24:18;;;;;;;25.47;14.93;;;;;;;;;;2094003;28;20498;-75
2023/09/16 00:25:39;;;;;;;23.25;14.23;;;;;;;;;;2090169;28;20082;-75
2023/09/16 00:27:01;;;;;;;22.88;14.40;;;;;;;;;;2088686;28;20025;-75
2023/09/16 00:28:25;;;;;;;22.70;14.57;;;;;;;;;;2080697;28;20041;-74
2023/09/16 00:29:46;;;;;;;21.85;15.00;;;;;;;;;;2082033;28;20473;-75
2023/09/16 00:31:07;;;;;;;22.38;15.25;;;;;;;;;;2087105;28;20025;-75
2023/09/16 00:32:28;;;;;;;19.43;14.17;;;;;;;;;;2080950;28;20021;-75
2023/09/16 00:33:49;;;;;;;22.90;15.13;;;;;;;;;;2080334;28;20971;-75
2023/09/16 00:35:10;;;;;;;23.90;14.80;;;;;;;;;;2075800;28;20041;-75
2023/09/16 00:36:31;;;;;;;22.95;14.82;;;;;;;;;;2088503;28;20025;-75
2023/09/16 00:37:51;;;;;;;20.45;14.43;;;;;;;;;;2088479;28;20033;-75
2023/09/16 00:39:13;;;;;;;19.80;13.88;;;;;;;;;;2088862;28;20045;-75
2023/09/16 00:40:35;;;;;;;19.58;13.60;;;;;;;;;;2081351;28;20500;-75
2023/09/16 00:41:55;;;;;;;19.55;14.35;;;;;;;;;;2080675;28;20032;-75
2023/09/16 00:43:16;;;;;;;21.73;15.35;;;;;;;;;;2081311;28;20048;-75
2023/09/16 00:44:37;;;;;;;21.83;15.00;;;;;;;;;;2073147;28;20045;-75
2023/09/16 00:45:58;;;;;;;19.02;13.82;;;;;;;;;;2086430;28;20105;-75
2023/09/16 00:47:19;;;;;;;21.90;15.43;;;;;;;;;;2095638;28;20044;-75
2023/09/16 00:48:40;;;;;;;23.20;15.85;;;;;;;;;;2092576;28;20499;-75
2023/09/16 00:50:06;;;;;;;21.85;14.95;;;;;;;;;;2077020;28;20041;-75
2023/09/16 00:51:27;;;;;;;22.13;15.02;;;;;;;;;;2083826;28;20059;-75
2023/09/16 00:52:50;;;;;;;24.83;16.27;;;;;;;;;;2085520;28;20033;-75
2023/09/16 00:54:11;;;;;;;23.45;15.15;;;;;;;;;;2081824;28;20026;-74
2023/09/16 00:55:32;;;;;;;23.00;15.63;;;;;;;;;;2079988;28;20802;-75
2023/09/16 00:56:54;;;;;;;23.35;15.95;;;;;;;;;;2077955;28;20029;-75
2023/09/16 00:58:17;;;;;;;24.15;16.00;;;;;;;;;;2085349;28;20033;-75
2023/09/16 00:59:38;;;;;;;20.75;15.50;;;;;;;;;;2079826;28;20029;-75
2023/09/16 01:00:59;;;;;;;22.27;15.80;;;;;;;;;;2087703;28;20511;-75
2023/09/16 01:02:21;;;;;;;22.77;15.48;;;;;;;;;;2083723;28;20413;-75
2023/09/16 01:03:41;;;;;;;21.17;14.30;;;;;;;;;;2085737;28;20531;-75
2023/09/16 01:05:12;;;;;;;20.95;14.85;;;;;;;;;;2086456;28;20032;-75
2023/09/16 01:06:33;;;;;;;19.98;14.73;;;;;;;;;;2079365;28;20060;-75
2023/09/16 01:07:54;;;;;;;25.67;15.90;;;;;;;;;;2078702;28;20448;-74
2023/09/16 01:09:16;;;;;;;24.70;15.52;;;;;;;;;;2079681;28;20049;-75
2023/09/16 01:10:40;;;;;;;21.77;15.18;;;;;;;;;;2080965;28;20033;-75
2023/09/16 01:12:03;;;;;;;21.83;15.25;;;;;;;;;;2080126;28;20033;-75
2023/09/16 01:13:24;;;;;;;25.13;15.68;;;;;;;;;;2078926;28;20032;-75
2023/09/16 01:14:45;;;;;;;24.65;15.65;;;;;;;;;;2077806;28;20030;-75
2023/09/16 01:16:16;;;;;;;25.25;15.70;;;;;;;;;;2072185;28;20034;-75
2023/09/16 01:17:42;;;;;;;26.75;15.00;;;;;;;;;;2078567;28;20026;-75
2023/09/16 01:19:14;;;;;;;23.67;15.02;;;;;;;;;;2083812;28;20049;-75
2023/09/16 01:20:35;;;;;;;21.75;15.50;;;;;;;;;;2079718;28;20025;-75
2023/09/16 01:21:56;;;;;;;22.70;15.23;;;;;;;;;;2079297;28;20397;-75
2023/09/16 01:23:20;;;;;;;23.73;15.52;;;;;;;;;;2082474;28;20025;-75
2023/09/16 01:24:41;;;;;;;22.30;15.80;;;;;;;;;;2089309;28;20021;-75
2023/09/16 01:26:03;;;;;;;23.00;15.00;;;;;;;;;;2087878;28;20029;-75
2023/09/16 01:27:24;;;;;;;21.52;15.10;;;;;;;;;;2078135;28;20515;-75
2023/09/16 01:28:44;;;;;;;24.77;15.02;;;;;;;;;;2087520;28;20102;-75
2023/09/16 01:30:06;;;;;;;21.75;15.88;;;;;;;;;;2080508;28;20030;-74
2023/09/16 01:31:27;;;;;;;25.90;16.02;;;;;;;;;;2084787;28;20036;-75
2023/09/16 01:32:48;;;;;;;25.98;16.15;;;;;;;;;;2080033;28;20025;-75
2023/09/16 01:34:13;;;;;;;24.63;17.15;;;;;;;;;;2090691;28;20411;-75
2023/09/16 01:35:37;;;;;;;23.40;17.67;;;;;;;;;;2088763;28;20409;-75
2023/09/16 01:36:58;;;;;;;27.42;17.08;;;;;;;;;;2088818;28;20091;-75
2023/09/16 01:38:22;;;;;;;23.00;16.58;;;;;;;;;;2078354;28;20029;-75
2023/09/16 01:39:48;;;;;;;27.02;17.70;;;;;;;;;;2086457;28;20036;-75
2023/09/16 01:41:10;;;;;;;27.08;16.33;;;;;;;;;;2085724;28;20032;-75
2023/09/16 01:42:31;;;;;;;26.95;17.77;;;;;;;;;;2088748;28;20025;-75
2023/09/16 01:43:52;;;;;;;25.60;17.00;;;;;;;;;;2080846;28;20033;-75
2023/09/16 01:45:14;;;;;;;26.02;17.45;;;;;;;;;;2076546;28;20040;-75
2023/09/16 01:46:35;;;;;;;24.20;16.63;;;;;;;;;;2080326;28;20041;-75
2023/09/16 01:47:55;;;;;;;26.38;17.70;;;;;;;;;;2082537;28;20040;-75
2023/09/16 01:49:16;;;;;;;26.77;17.30;;;;;;;;;;2081265;28;20033;-75
2023/09/16 01:50:37;;;;;;;25.35;16.25;;;;;;;;;;2087479;28;20477;-75
2023/09/16 01:51:58;;;;;;;30.10;17.58;;;;;;;;;;2091592;28;20037;-75
2023/09/16 01:53:19;;;;;;;28.23;17.13;;;;;;;;;;2095941;28;20021;-75
2023/09/16 01:54:40;;;;;;;23.70;16.33;;;;;;;;;;2087270;28;20041;-75
2023/09/16 01:56:01;;;;;;;27.95;18.17;;;;;;;;;;2085315;28;20025;-74
2023/09/16 01:57:22;;;;;;;28.27;17.75;;;;;;;;;;2081614;28;20021;-75
2023/09/16 01:58:43;;;;;;;31.90;18.00;;;;;;;;;;2088471;28;20040;-75
2023/09/16 02:00:05;;;;;;;24.67;17.13;;;;;;;;;;2081919;28;20033;-75
2023/09/16 02:01:26;;;;;;;;;;;;;;;;;;2073468;28;20026;-74
2023/09/16 02:02:46;;;;;;;28.90;17.80;;;;;;;;;;2078040;28;19905;-75
2023/09/16 02:04:07;;;;;;;23.33;16.45;;;;;;;;;;2083367;28;20034;-74
2023/09/16 02:05:28;;;;;;;31.27;18.52;;;;;;;;;;2084660;28;20463;-74
2023/09/16 02:06:49;;;;;;;27.25;17.92;;;;;;;;;;2081060;28;20033;-75
2023/09/16 02:08:10;;;;;;;23.67;17.38;;;;;;;;;;2086639;28;20427;-74
2023/09/16 02:09:31;;;;;;;25.10;17.10;;;;;;;;;;2097576;28;20040;-75
2023/09/16 02:10:52;;;;;;;23.77;17.25;;;;;;;;;;2089814;28;20037;-74
2023/09/16 02:12:13;;;;;;;27.65;16.45;;;;;;;;;;2096060;28;20391;-74
2023/09/16 02:13:35;;;;;;;28.48;18.98;;;;;;;;;;2087091;28;20701;-74
2023/09/16 02:14:56;;;;;;;27.42;17.95;;;;;;;;;;2076739;28;20543;-75
2023/09/16 02:16:17;;;;;;;26.35;17.20;;;;;;;;;;2070565;28;20100;-75
2023/09/16 02:17:41;;;;;;;26.83;17.35;;;;;;;;;;2079347;28;20036;-75
2023/09/16 02:19:02;;;;;;;25.67;17.48;;;;;;;;;;2092936;28;20047;-74
2023/09/16 02:20:23;;;;;;;29.25;18.60;;;;;;;;;;2091814;28;20041;-74
2023/09/16 02:21:44;;;;;;;31.65;18.77;;;;;;;;;;2097051;28;20032;-75
2023/09/16 02:23:05;;;;;;;28.95;18.27;;;;;;;;;;2085108;28;20033;-75
2023/09/16 02:24:26;;;;;;;25.83;17.63;;;;;;;;;;2085955;28;20033;-75
2023/09/16 02:25:47;;;;;;;26.58;17.10;;;;;;;;;;2094222;28;20032;-75
2023/09/16 02:27:08;;;;;;;24.55;16.90;;;;;;;;;;2083878;28;20521;-74
2023/09/16 02:28:29;;;;;;;30.83;17.50;;;;;;;;;;2090912;28;20059;-74
2023/09/16 02:29:50;;;;;;;30.13;18.10;;;;;;;;;;2081964;28;20524;-74
2023/09/16 02:31:11;;;;;;;24.08;17.75;;;;;;;;;;2078739;28;20079;-74
2023/09/16 02:32:32;;;;;;;26.17;18.15;;;;;;;;;;2087253;28;20032;-74
2023/09/16 02:33:56;;;;;;;28.75;16.20;;;;;;;;;;2075990;28;20030;-75
2023/09/16 02:35:17;;;;;;;26.40;17.13;;;;;;;;;;2092701;28;20045;-74
2023/09/16 02:36:38;;;;;;;29.55;18.38;;;;;;;;;;2093093;28;20032;-75
2023/09/16 02:38:02;;;;;;;23.77;16.77;;;;;;;;;;2102499;28;20131;-74
2023/09/16 02:39:22;;;;;;;26.80;17.95;;;;;;;;;;2094852;28;20515;-74
2023/09/16 02:40:43;;;;;;;25.83;16.98;;;;;;;;;;2092686;28;20036;-74
2023/09/16 02:42:04;;;;;;;25.02;16.55;;;;;;;;;;2093864;28;20032;-75
2023/09/16 02:43:25;;;;;;;23.85;16.38;;;;;;;;;;2098861;28;20029;-74
2023/09/16 02:44:46;;;;;;;21.83;15.90;;;;;;;;;;2100174;28;20028;-75
2023/09/16 02:46:07;;;;;;;23.23;16.17;;;;;;;;;;2084055;28;20021;-74
2023/09/16 02:47:29;;;;;;;25.73;16.45;;;;;;;;;;2086102;28;20025;-74
2023/09/16 02:48:50;;;;;;;23.52;16.63;;;;;;;;;;2097914;28;20376;-74
2023/09/16 02:50:11;;;;;;;23.25;15.75;;;;;;;;;;2097504;28;20043;-74
2023/09/16 02:51:32;;;;;;;26.92;15.82;;;;;;;;;;2089418;28;20404;-74
2023/09/16 02:52:53;;;;;;;23.88;16.25;;;;;;;;;;2096819;28;20033;-74
2023/09/16 02:54:14;;;;;;;27.65;16.38;;;;;;;;;;2090592;28;20018;-74
2023/09/16 02:55:35;;;;;;;24.98;17.33;;;;;;;;;;2093628;28;20032;-74
2023/09/16 02:56:56;;;;;;;25.65;16.95;;;;;;;;;;2088753;28;20033;-75
2023/09/16 02:58:17;;;;;;;28.30;17.33;;;;;;;;;;2088105;28;20021;-74
2023/09/16 02:59:38;;;;;;;29.80;17.20;;;;;;;;;;2094191;28;20583;-75
2023/09/16 03:00:58;;;;;;;29.15;18.15;;;;;;;;;;2099035;28;20033;-74
2023/09/16 03:02:20;;;;;;;25.75;18.10;;;;;;;;;;2089273;28;20033;-74
2023/09/16 03:03:41;;;;;;;29.53;18.23;;;;;;;;;;2088465;28;20065;-74
2023/09/16 03:05:02;;;;;;;26.67;17.80;;;;;;;;;;2095916;28;20532;-75
2023/09/16 03:06:23;;;;;;;26.60;18.42;;;;;;;;;;2088910;28;20032;-75
2023/09/16 03:07:44;;;;;;;30.38;19.05;;;;;;;;;;2095151;28;20029;-75
2023/09/16 03:09:05;;;;;;;30.55;18.80;;;;;;;;;;2087046;28;20033;-75
2023/09/16 03:10:26;;;;;;;32.65;20.27;;;;;;;;;;2088269;28;20025;-75
2023/09/16 03:11:47;;;;;;;30.08;19.52;;;;;;;;;;2089797;28;20044;-75
2023/09/16 03:13:08;;;;;;;31.55;19.98;;;;;;;;;;2082079;28;20052;-75
2023/09/16 03:14:28;;;;;;;29.63;19.52;;;;;;;;;;2098996;28;20032;-75
2023/09/16 03:16:09;;;;;;;30.58;20.25;;;;;;;;;;2088916;28;20021;-75
2023/09/16 03:17:30;;;;;;;27.35;19.70;;;;;;;;;;2087934;28;20144;-75
2023/09/16 03:18:52;;;;;;;28.67;18.77;;;;;;;;;;2083991;28;20449;-75
2023/09/16 03:20:12;;;;;;;29.73;18.83;;;;;;;;;;2090156;28;20051;-75
2023/09/16 03:21:33;;;;;;;29.02;18.65;;;;;;;;;;2097929;28;20433;-75
2023/09/16 03:22:54;;;;;;;27.88;17.88;;;;;;;;;;2104693;28;20041;-75
2023/09/16 03:24:15;;;;;;;28.08;17.33;;;;;;;;;;2100591;28;20028;-75
2023/09/16 03:25:36;;;;;;;28.92;17.52;;;;;;;;;;2099144;28;20036;-75
2023/09/16 03:26:57;;;;;;;27.95;18.63;;;;;;;;;;2094815;28;20078;-75
2023/09/16 03:28:18;;;;;;;26.95;17.75;;;;;;;;;;2092262;28;20044;-75
2023/09/16 03:29:39;;;;;;;29.33;20.23;;;;;;;;;;2093407;28;20048;-75
2023/09/16 03:30:59;;;;;;;26.38;18.23;;;;;;;;;;2087803;28;20025;-75
2023/09/16 03:32:23;;;;;;;34.78;19.13;;;;;;;;;;2089163;28;20026;-75
2023/09/16 03:33:44;;;;;;;29.35;18.35;;;;;;;;;;2087561;28;20108;-75
2023/09/16 03:35:05;;;;;;;30.20;19.15;;;;;;;;;;2083701;28;20463;-75
2023/09/16 03:36:26;;;;;;;28.88;18.52;;;;;;;;;;2089599;28;20029;-75
2023/09/16 03:37:46;;;;;;;27.85;17.83;;;;;;;;;;2090308;28;20025;-75
2023/09/16 03:39:07;;;;;;;28.85;19.13;;;;;;;;;;2079807;28;20481;-75
2023/09/16 03:40:28;;;;;;;32.53;19.75;;;;;;;;;;2087239;28;20033;-75
2023/09/16 03:41:49;;;;;;;30.23;18.15;;;;;;;;;;2097189;28;20098;-75
2023/09/16 03:43:10;;;;;;;30.45;19.80;;;;;;;;;;2088231;28;20396;-75
2023/09/16 03:44:31;;;;;;;31.77;18.83;;;;;;;;;;2072424;28;20033;-75
2023/09/16 03:45:52;;;;;;;29.90;18.33;;;;;;;;;;2081257;28;20029;-75
2023/09/16 03:47:13;;;;;;;29.90;18.30;;;;;;;;;;2081763;28;20033;-75
2023/09/16 03:48:34;;;;;;;29.40;19.52;;;;;;;;;;2085396;28;20352;-75
2023/09/16 03:49:55;;;;;;;25.60;17.30;;;;;;;;;;2088096;28;20041;-74
2023/09/16 03:51:15;;;;;;;29.13;18.63;;;;;;;;;;2082273;28;20095;-74
2023/09/16 03:52:36;;;;;;;28.13;19.55;;;;;;;;;;2084544;28;20041;-75
2023/09/16 03:53:57;;;;;;;29.55;18.45;;;;;;;;;;2086836;28;20026;-75
2023/09/16 03:55:18;;;;;;;29.33;18.55;;;;;;;;;;2085069;28;20033;-75
2023/09/16 03:56:39;;;;;;;27.10;18.73;;;;;;;;;;2079508;28;20033;-75
2023/09/16 03:58:00;;;;;;;28.98;18.73;;;;;;;;;;2080190;28;20429;-75
2023/09/16 03:59:21;;;;;;;32.00;19.67;;;;;;;;;;2089197;28;20033;-75
2023/09/16 04:00:42;;;;;;;33.83;20.33;;;;;;;;;;2088573;28;20040;-75
2023/09/16 04:02:03;;;;;;;26.98;18.77;;;;;;;;;;2080462;28;20033;-75
2023/09/16 04:03:24;;;;;;;31.35;19.63;;;;;;;;;;2085463;28;20033;-76
2023/09/16 04:04:45;;;;;;;35.35;20.80;;;;;;;;;;2083512;28;20115;-75
2023/09/16 04:06:06;;;;;;;33.10;20.20;;;;;;;;;;2077919;28;20029;-75
2023/09/16 04:07:27;;;;;;;35.95;21.55;;;;;;;;;;2077736;28;20097;-75
2023/09/16 04:08:48;;;;;;;33.15;21.30;;;;;;;;;;2087126;28;20025;-75
2023/09/16 04:10:09;;;;;;;30.92;20.52;;;;;;;;;;2086341;28;20041;-75
2023/09/16 04:11:30;;;;;;;30.30;20.13;;;;;;;;;;2081532;28;20029;-74
2023/09/16 04:12:51;;;;;;;33.58;21.20;;;;;;;;;;2080483;28;20037;-75
2023/09/16 04:14:12;;;;;;;34.17;20.83;;;;;;;;;;2077624;28;20025;-75
2023/09/16 04:15:32;;;;;;;32.85;20.70;;;;;;;;;;2086029;28;20033;-75
2023/09/16 04:16:53;;;;;;;33.03;20.27;;;;;;;;;;2088410;28;20025;-75
2023/09/16 04:18:14;;;;;;;31.55;19.90;;;;;;;;;;2079262;28;20029;-74
2023/09/16 04:19:35;;;;;;;30.30;19.50;;;;;;;;;;2090148;28;20527;-75
2023/09/16 04:20:56;;;;;;;32.22;20.00;;;;;;;;;;2079707;28;20029;-75
2023/09/16 04:22:17;;;;;;;32.15;19.33;;;;;;;;;;2085904;28;20037;-74
2023/09/16 04:23:38;;;;;;;37.50;20.33;;;;;;;;;;2091747;28;20094;-75
2023/09/16 04:24:59;;;;;;;32.35;19.77;;;;;;;;;;2089935;28;20040;-75
2023/09/16 04:26:20;;;;;;;27.63;18.98;;;;;;;;;;2081059;28;20041;-75
2023/09/16 04:27:41;;;;;;;28.23;19.70;;;;;;;;;;2079708;28;20033;-75
2023/09/16 04:29:02;;;;;;;31.17;19.63;;;;;;;;;;2092193;28;20028;-74
2023/09/16 04:30:23;;;;;;;32.40;17.90;;;;;;;;;;2085312;28;20025;-75
2023/09/16 04:31:44;;;;;;;27.63;18.95;;;;;;;;;;2079861;28;20153;-75
2023/09/16 04:33:05;;;;;;;28.30;19.75;;;;;;;;;;2079709;28;20389;-75
2023/09/16 04:34:26;;;;;;;30.45;18.98;;;;;;;;;;2080853;28;20056;-74
2023/09/16 04:35:48;;;;;;;30.90;19.67;;;;;;;;;;2089862;28;20492;-74
2023/09/16 04:37:09;;;;;;;29.10;18.17;;;;;;;;;;2088847;28;20033;-75
2023/09/16 04:38:30;;;;;;;30.23;19.53;;;;;;;;;;2084137;28;20040;-75
2023/09/16 04:39:51;;;;;;;28.65;18.95;;;;;;;;;;2081884;28;20461;-74
2023/09/16 04:41:13;;;;;;;29.20;19.30;;;;;;;;;;2078162;28;20089;-75
2023/09/16 04:42:35;;;;;;;27.63;18.27;;;;;;;;;;2088557;28;20030;-74
2023/09/16 04:43:56;;;;;;;26.17;17.63;;;;;;;;;;2086336;28;20048;-74
2023/09/16 04:45:17;;;;;;;28.35;17.95;;;;;;;;;;2092366;28;20136;-75
2023/09/16 04:46:37;;;;;;;30.08;18.83;;;;;;;;;;2088969;28;20036;-75
2023/09/16 04:47:59;;;;;;;29.83;18.50;;;;;;;;;;2084726;28;20566;-75
2023/09/16 04:49:20;;;;;;;28.70;18.65;;;;;;;;;;2083810;28;20045;-74
2023/09/16 04:50:47;;;;;;;28.65;17.85;;;;;;;;;;2086728;28;20026;-74
2023/09/16 04:52:08;;;;;;;31.17;19.75;;;;;;;;;;2093792;28;20108;-75
2023/09/16 04:53:31;;;;;;;30.85;19.90;;;;;;;;;;2090637;28;20024;-75
2023/09/16 04:54:53;;;;;;;29.48;19.60;;;;;;;;;;2095185;28;20044;-75
2023/09/16 04:56:15;;;;;;;32.42;20.00;;;;;;;;;;2088754;28;20025;-75
2023/09/16 04:57:36;;;;;;;32.13;19.38;;;;;;;;;;2089584;28;20028;-75
2023/09/16 04:58:57;;;;;;;31.45;19.70;;;;;;;;;;2086163;28;20407;-75
2023/09/16 05:00:18;;;;;;;30.75;19.77;;;;;;;;;;2094266;28;20028;-75
2023/09/16 05:01:38;;;;;;;33.13;19.73;;;;;;;;;;2096873;28;20484;-75
2023/09/16 05:03:00;;;;;;;32.00;20.77;;;;;;;;;;2088379;28;20041;-75
2023/09/16 05:04:20;;;;;;;34.13;20.90;;;;;;;;;;2093992;28;20032;-75
2023/09/16 05:05:41;;;;;;;29.98;20.00;;;;;;;;;;2088444;28;20512;-74
2023/09/16 05:07:04;;;;;;;29.40;20.05;;;;;;;;;;2087800;28;20037;-75
2023/09/16 05:08:25;;;;;;;35.03;21.17;;;;;;;;;;2094338;28;20032;-74
2023/09/16 05:09:46;;;;;;;30.65;20.00;;;;;;;;;;2083184;28;20716;-75
2023/09/16 05:11:07;;;;;;;29.60;19.30;;;;;;;;;;2093924;28;20032;-74
2023/09/16 05:12:28;;;;;;;33.95;19.77;;;;;;;;;;2096810;28;20040;-75
2023/09/16 05:13:51;;;;;;;29.73;19.90;;;;;;;;;;2096369;28;20511;-74
2023/09/16 05:15:12;;;;;;;35.22;20.23;;;;;;;;;;2088950;28;20033;-75
2023/09/16 05:16:32;;;;;;;30.58;20.00;;;;;;;;;;2094334;28;20032;-75
2023/09/16 05:17:53;;;;;;;31.65;19.42;;;;;;;;;;2096187;28;20021;-75
2023/09/16 05:19:14;;;;;;;33.40;20.15;;;;;;;;;;2095347;28;20025;-75
2023/09/16 05:20:36;;;;;;;30.63;20.45;;;;;;;;;;2087581;28;20076;-75
2023/09/16 05:21:56;;;;;;;34.37;20.53;;;;;;;;;;2092170;28;20040;-76
2023/09/16 05:23:17;;;;;;;28.25;19.25;;;;;;;;;;2088939;28;20964;-75
2023/09/16 05:24:38;;;;;;;35.00;20.77;;;;;;;;;;2090169;28;20367;-75
2023/09/16 05:25:59;;;;;;;26.80;18.58;;;;;;;;;;2079566;28;20029;-75
2023/09/16 05:27:20;;;;;;;33.20;19.35;;;;;;;;;;2081275;28;20056;-75
2023/09/16 05:28:41;;;;;;;29.92;20.02;;;;;;;;;;2089601;28;20028;-75
2023/09/16 05:30:03;;;;;;;32.95;20.25;;;;;;;;;;2086899;28;20045;-75
2023/09/16 05:31:24;;;;;;;33.95;21.30;;;;;;;;;;2087722;28;20473;-75
2023/09/16 05:32:44;;;;;;;31.58;21.02;;;;;;;;;;2088219;28;20032;-74
2023/09/16 05:34:05;;;;;;;31.10;20.45;;;;;;;;;;2093795;28;20036;-74
2023/09/16 05:35:26;;;;;;;34.65;22.48;;;;;;;;;;2084920;28;20025;-74
2023/09/16 05:36:47;;;;;;;34.25;21.73;;;;;;;;;;2088692;28;20484;-74
2023/09/16 05:38:08;;;;;;;38.33;23.08;;;;;;;;;;2077024;28;20076;-74
2023/09/16 05:39:29;;;;;;;35.55;22.85;;;;;;;;;;2082568;28;20041;-74
2023/09/16 05:40:50;;;;;;;36.00;21.75;;;;;;;;;;2079609;28;20042;-74
2023/09/16 05:42:11;;;;;;;31.88;20.98;;;;;;;;;;2075832;28;20034;-74
2023/09/16 05:43:32;;;;;;;35.35;21.00;;;;;;;;;;2081311;28;20508;-74
2023/09/16 05:44:53;;;;;;;33.28;22.08;;;;;;;;;;2081207;28;20091;-74
2023/09/16 05:46:13;;;;;;;30.77;21.20;;;;;;;;;;2077482;28;20415;-74
2023/09/16 05:47:34;;;;;;;34.20;20.83;;;;;;;;;;2083729;28;20026;-74
2023/09/16 05:49:06;;;;;;;34.78;21.08;;;;;;;;;;2086644;28;20373;-75
2023/09/16 05:50:27;;;;;;;33.92;20.83;;;;;;;;;;2091415;28;20037;-74
2023/09/16 05:51:48;;;;;;;31.88;20.20;;;;;;;;;;2094456;28;20033;-74
2023/09/16 05:53:08;;;;;;;34.35;22.35;;;;;;;;;;2091224;28;20432;-74
2023/09/16 05:54:29;;;;;;;39.22;23.15;;;;;;;;;;2087207;28;20029;-74
2023/09/16 05:55:51;;;;;;;36.95;22.33;;;;;;;;;;2090665;28;20029;-74
2023/09/16 05:57:12;;;;;;;32.70;20.50;;;;;;;;;;2091392;28;20029;-74
2023/09/16 05:58:33;;;;;;;40.10;23.10;;;;;;;;;;2081754;28;20528;-74
2023/09/16 05:59:54;;;;;;;31.75;21.00;;;;;;;;;;2084305;28;20033;-74
2023/09/16 06:01:15;;;;;;;35.45;20.67;;;;;;;;;;2075255;28;20512;-74
2023/09/16 06:02:39;;;;;;;32.97;21.17;;;;;;;;;;2073819;28;20061;-74
2023/09/16 06:04:00;;;;;;;34.08;21.58;;;;;;;;;;2086122;28;20570;-74
2023/09/16 06:05:20;;;;;;;34.17;20.85;;;;;;;;;;2091048;28;20048;-75
2023/09/16 06:06:41;;;;;;;34.22;21.58;;;;;;;;;;2091442;28;20412;-75
2023/09/16 06:08:02;;;;;;;34.00;20.48;;;;;;;;;;2081508;28;20053;-75
2023/09/16 06:09:23;;;;;;;37.97;21.65;;;;;;;;;;2087283;28;20407;-74
2023/09/16 06:10:44;;;;;;;36.30;22.52;;;;;;;;;;2081179;28;20508;-74
2023/09/16 06:12:05;;;;;;;38.15;22.33;;;;;;;;;;2079771;28;20195;-74
2023/09/16 06:13:26;;;;;;;35.10;21.83;;;;;;;;;;2088500;28;20029;-74
2023/09/16 06:14:47;;;;;;;36.92;23.73;;;;;;;;;;2081708;28;20072;-74
2023/09/16 06:16:08;;;;;;;38.65;24.00;;;;;;;;;;2087280;28;20377;-75
2023/09/16 06:17:29;;;;;;;33.50;21.48;;;;;;;;;;2081595;28;20041;-74
2023/09/16 06:18:50;;;;;;;32.80;21.40;;;;;;;;;;2078709;28;20092;-74
2023/09/16 06:20:11;;;;;;;34.15;20.52;;;;;;;;;;2082561;28;20586;-75
2023/09/16 06:21:32;;;;;;;38.35;21.92;;;;;;;;;;2088247;28;20033;-74
2023/09/16 06:22:53;;;;;;;34.45;22.60;;;;;;;;;;2099794;28;20032;-75
2023/09/16 06:24:13;;;;;;;34.65;21.00;;;;;;;;;;2081554;28;20103;-74
2023/09/16 06:25:34;;;;;;;34.03;22.20;;;;;;;;;;2080053;28;20508;-75
2023/09/16 06:26:55;;;;;;;33.10;21.65;;;;;;;;;;2086762;28;20033;-74
2023/09/16 06:28:16;;;;;;;31.13;21.08;;;;;;;;;;2076721;28;20149;-74
2023/09/16 06:29:37;;;;;;;36.92;22.50;;;;;;;;;;2078965;28;20432;-74
2023/09/16 06:30:58;;;;;;;36.30;21.48;;;;;;;;;;2088560;28;20090;-74
2023/09/16 06:32:19;;;;;;;41.53;23.20;;;;;;;;;;2081029;28;20044;-74
2023/09/16 06:33:40;;;;;;;31.60;21.27;;;;;;;;;;2087586;28;20495;-74
2023/09/16 06:35:01;;;;;;;31.13;21.52;;;;;;;;;;2089681;28;20049;-74
2023/09/16 06:36:22;;;;;;;35.28;22.85;;;;;;;;;;2081212;28;20072;-75
2023/09/16 06:37:43;;;;;;;35.57;22.87;;;;;;;;;;2089782;28;20036;-75
2023/09/16 06:39:07;;;;;;;36.00;22.75;;;;;;;;;;2097599;28;20020;-74
2023/09/16 06:40:28;;;;;;;34.50;22.20;;;;;;;;;;2092651;28;20037;-75
2023/09/16 06:41:49;;;;;;;35.78;21.85;;;;;;;;;;2097387;28;20024;-75
2023/09/16 06:43:10;;;;;;;37.75;24.80;;;;;;;;;;2086207;28;20025;-74
2023/09/16 06:44:30;;;;;;;37.22;23.40;;;;;;;;;;2091413;28;20029;-74
2023/09/16 06:45:51;;;;;;;34.90;22.15;;;;;;;;;;2088571;28;20048;-74
2023/09/16 06:47:12;;;;;;;38.17;22.00;;;;;;;;;;2098426;28;20020;-74
2023/09/16 06:48:33;;;;;;;37.55;21.15;;;;;;;;;;2093279;28;20037;-74
2023/09/16 06:49:55;;;;;;;29.30;20.58;;;;;;;;;;2095998;28;20372;-74
2023/09/16 06:51:16;;;;;;;33.85;20.27;;;;;;;;;;2095406;28;20477;-75
2023/09/16 06:52:37;;;;;;;37.70;22.23;;;;;;;;;;2090656;28;20055;-74
2023/09/16 06:53:58;;;;;;;32.33;21.63;;;;;;;;;;2085613;28;20071;-74
2023/09/16 06:55:19;;;;;;;30.83;20.15;;;;;;;;;;2093586;28;20025;-74
2023/09/16 06:56:40;;;;;;;29.90;20.92;;;;;;;;;;2089784;28;20037;-74
2023/09/16 06:58:04;;;;;;;31.50;19.98;;;;;;;;;;2090614;28;20036;-75
2023/09/16 06:59:25;;;;;;;33.05;19.95;;;;;;;;;;2089254;28;20025;-74
2023/09/16 07:00:46;;;;;;;30.17;19.95;;;;;;;;;;2081898;28;20384;-74
2023/09/16 07:02:07;;;;;;;30.05;20.45;;;;;;;;;;2097010;28;20036;-74
2023/09/16 07:03:28;;;;;;;31.38;20.88;;;;;;;;;;2100352;28;20021;-74
2023/09/16 07:04:49;;;;;;;26.85;18.08;;;;;;;;;;2101528;28;20396;-74
2023/09/16 07:06:10;;;;;;;32.28;21.10;;;;;;;;;;2094540;28;20581;-74
2023/09/16 07:07:31;;;;;;;33.13;21.13;;;;;;;;;;2100734;28;20055;-75
2023/09/16 07:08:52;;;;;;;33.83;19.27;;;;;;;;;;2085861;28;20028;-75
2023/09/16 07:10:12;;;;;;;30.08;18.90;;;;;;;;;;2090185;28;20045;-74
2023/09/16 07:11:33;;;;;;;30.40;19.40;;;;;;;;;;2089178;28;20423;-74
2023/09/16 07:12:54;;;;;;;29.75;18.90;;;;;;;;;;2094494;28;20025;-74
2023/09/16 07:14:15;;;;;;;31.02;19.30;;;;;;;;;;2089125;28;20033;-74
2023/09/16 07:15:36;;;;;;;29.45;18.50;;;;;;;;;;2096320;28;20507;-74
2023/09/16 07:16:57;;;;;;;29.45;18.60;;;;;;;;;;2090283;28;20025;-75
2023/09/16 07:18:18;;;;;;;29.65;19.55;;;;;;;;;;2088912;28;20021;-75
2023/09/16 07:19:39;;;;;;;25.23;18.45;;;;;;;;;;2093020;28;20032;-75
2023/09/16 07:21:00;;;;;;;28.02;17.60;;;;;;;;;;2099707;28;20488;-75
2023/09/16 07:22:21;;;;;;;27.73;17.60;;;;;;;;;;2098042;28;20040;-75
2023/09/16 07:23:41;;;;;;;28.90;19.15;;;;;;;;;;2096224;28;20114;-75
2023/09/16 07:25:02;;;;;;;23.45;14.68;;;;;;;;;;2097441;28;20660;-75
2023/09/16 07:26:23;;;;;;;27.23;18.55;;;;;;;;;;2089071;28;20029;-75
2023/09/16 07:27:44;;;;;;;28.50;18.33;;;;;;;;;;2086370;28;20392;-75
2023/09/16 07:29:05;;;;;;;29.35;17.73;;;;;;;;;;2094932;28;20040;-75
2023/09/16 07:30:26;;;;;;;29.25;17.90;;;;;;;;;;2095735;28;20043;-75
2023/09/16 07:31:47;;;;;;;25.27;17.40;;;;;;;;;;2089235;28;20507;-74
2023/09/16 07:33:08;;;;;;;25.23;16.50;;;;;;;;;;2094595;28;20033;-74
2023/09/16 07:34:29;;;;;;;26.60;17.30;;;;;;;;;;2094926;28;20045;-75
2023/09/16 07:35:51;;;;;;;24.98;17.17;;;;;;;;;;2091167;28;20022;-76
2023/09/16 07:37:12;;;;;;;27.77;18.17;;;;;;;;;;2081985;28;20052;-76
2023/09/16 07:38:33;;;;;;;27.23;16.35;;;;;;;;;;2080043;28;20040;-76
2023/09/16 07:39:54;;;;;;;23.35;16.67;;;;;;;;;;2082680;28;20045;-76
2023/09/16 07:41:15;;;;;;;25.58;16.17;;;;;;;;;;2078104;28;20026;-76
2023/09/16 07:42:36;;;;;;;25.92;15.23;;;;;;;;;;2080006;28;20037;-76
2023/09/16 07:43:57;;;;;;;24.77;16.00;;;;;;;;;;2080721;28;20124;-76
2023/09/16 07:45:18;;;;;;;22.85;15.98;;;;;;;;;;2075299;28;20040;-73
2023/09/16 07:46:39;;;;;;;22.30;15.10;;;;;;;;;;2073113;28;20045;-74
2023/09/16 07:48:00;;;;;;;22.42;14.80;;;;;;;;;;2081593;28;20033;-72
2023/09/16 07:49:21;;;;;;;25.55;16.35;;;;;;;;;;2082441;28;20425;-71
2023/09/16 07:50:41;;;;;;;23.10;13.55;;;;;;;;;;2088924;28;20048;-72
2023/09/16 07:52:02;;;;;;;19.67;14.10;;;;;;;;;;2092760;28;20396;-73
2023/09/16 07:53:23;;;;;;;20.58;14.82;;;;;;;;;;2091466;28;20288;-73
2023/09/16 07:54:45;;;;;;;21.27;14.45;;;;;;;;;;2084371;28;20482;-72